createdAt,value
2023-04-26T00:04:00.843Z,4.34
2023-04-26T00:08:04.324Z,4.31
2023-04-26T00:12:06.460Z,4.28
2023-04-26T00:16:08.331Z,4.23
2023-04-26T00:20:13.070Z,4.19
2023-04-26T00:24:14.818Z,4.13
2023-04-26T00:28:16.542Z,4.05
2023-04-26T00:32:18.459Z,3.98
2023-04-26T00:36:21.840Z,3.96
2023-04-26T00:40:23.600Z,3.94
2023-04-26T00:44:25.442Z,3.92
2023-04-26T00:48:28.062Z,3.89
2023-04-26T00:52:31.180Z,3.86
2023-04-26T00:56:33.437Z,3.83
2023-04-26T01:00:35.214Z,3.82
2023-04-26T01:04:37.565Z,3.79
2023-04-26T01:08:39.512Z,3.77
2023-04-26T01:12:41.691Z,3.73
2023-04-26T01:16:47.644Z,3.72
2023-04-26T01:20:49.834Z,3.69
2023-04-26T01:24:55.146Z,3.64
2023-04-26T01:28:56.895Z,3.61
2023-04-26T01:32:58.617Z,3.60
2023-04-26T01:37:01.665Z,3.60
2023-04-26T01:41:03.610Z,3.58
2023-04-26T01:45:07.495Z,3.56
2023-04-26T01:49:32.805Z,3.51
2023-04-26T01:53:34.655Z,3.51
2023-04-26T01:57:36.508Z,3.48
2023-04-26T02:01:38.230Z,3.43
2023-04-26T02:05:39.917Z,3.42
2023-04-26T02:09:41.865Z,3.40
2023-04-26T02:13:43.767Z,3.37
2023-04-26T02:17:45.446Z,3.35
2023-04-26T02:21:56.304Z,3.32
2023-04-26T02:25:58.148Z,3.30
2023-04-26T02:29:59.964Z,3.26
2023-04-26T02:34:02.329Z,3.25
2023-04-26T02:38:04.366Z,3.23
2023-04-26T02:42:12.513Z,3.21
2023-04-26T02:46:17.136Z,3.19
2023-04-26T02:50:19.104Z,3.18
2023-04-26T02:54:21.117Z,3.16
2023-04-26T02:58:22.917Z,3.15
2023-04-26T03:02:25.031Z,3.12
2023-04-26T03:06:28.302Z,3.11
2023-04-26T03:10:30.318Z,3.09
2023-04-26T03:14:32.282Z,3.05
2023-04-26T03:18:33.971Z,3.04
2023-04-26T03:22:36.080Z,3.00
2023-04-26T03:26:38.612Z,2.99
2023-04-26T03:30:40.479Z,2.95
2023-04-26T03:34:42.227Z,2.92
2023-04-26T03:38:44.026Z,2.88
2023-04-26T03:42:47.009Z,2.85
2023-04-26T03:46:50.949Z,2.80
2023-04-26T03:50:53.585Z,2.78
2023-04-26T03:54:55.298Z,2.75
2023-04-26T03:58:57.267Z,2.74
2023-04-26T04:02:59.898Z,2.74
2023-04-26T04:07:02.286Z,2.71
2023-04-26T04:11:04.006Z,2.72
2023-04-26T04:15:09.908Z,2.72
2023-04-26T04:19:13.721Z,2.73
2023-04-26T04:23:15.933Z,2.71
2023-04-26T04:27:17.882Z,2.70
2023-04-26T04:31:20.330Z,2.69
2023-04-26T04:35:29.369Z,2.68
2023-04-26T04:39:32.048Z,2.71
2023-04-26T04:43:35.216Z,2.77
2023-04-26T04:47:40.234Z,2.80
2023-04-26T04:51:44.189Z,2.86
2023-04-26T04:55:47.336Z,2.90
2023-04-26T04:59:51.465Z,2.95
2023-04-26T05:03:53.771Z,2.99
2023-04-26T05:07:55.927Z,3.05
2023-04-26T05:11:58.164Z,3.11
2023-04-26T05:16:00.917Z,3.17
2023-04-26T05:20:07.613Z,3.24
2023-04-26T05:24:10.170Z,3.28
2023-04-26T05:28:14.139Z,3.33
2023-04-26T05:32:50.967Z,3.45
2023-04-26T05:37:10.572Z,3.49
2023-04-26T05:41:13.168Z,3.52
2023-04-26T05:45:16.204Z,3.56
2023-04-26T05:49:18.176Z,3.63
2023-04-26T05:53:20.826Z,3.74
2023-04-26T05:57:28.547Z,3.88
2023-04-26T06:01:30.355Z,3.99
2023-04-26T06:05:33.049Z,4.15
2023-04-26T06:09:35.782Z,4.28
2023-04-26T06:13:38.261Z,4.43
2023-04-26T06:17:44.232Z,4.61
2023-04-26T06:21:49.128Z,4.77
2023-04-26T06:25:52.126Z,4.98
2023-04-26T06:29:56.112Z,5.16
2023-04-26T06:34:02.454Z,5.32
2023-04-26T06:38:04.194Z,5.49
2023-04-26T06:42:08.596Z,5.62
2023-04-26T06:46:36.192Z,5.81
2023-04-26T06:50:42.033Z,5.96
2023-04-26T06:54:55.933Z,6.21
2023-04-26T06:59:04.139Z,6.49
2023-04-26T07:03:07.195Z,6.87
2023-04-26T07:07:11.131Z,7.16
2023-04-26T07:11:16.872Z,7.43
2023-04-26T07:15:19.873Z,7.84
2023-04-26T07:19:22.114Z,8.00
2023-04-26T07:23:24.153Z,8.02
2023-04-26T07:27:27.397Z,8.25
2023-04-26T07:31:30.445Z,8.39
2023-04-26T07:35:33.760Z,8.35
2023-04-26T07:39:38.159Z,8.60
2023-04-26T07:43:42.085Z,8.77
2023-04-26T07:47:47.116Z,9.10
2023-04-26T07:51:51.304Z,9.35
2023-04-26T07:55:56.533Z,9.24
2023-04-26T08:00:00.482Z,9.43
2023-04-26T08:04:10.863Z,9.60
2023-04-26T08:08:14.077Z,10.01
2023-04-26T08:12:18.661Z,10.29
2023-04-26T08:16:23.126Z,10.50
2023-04-26T08:20:26.487Z,10.46
2023-04-26T08:24:29.825Z,10.40
2023-04-26T08:28:31.695Z,10.25
2023-04-26T08:32:36.132Z,10.03
2023-04-26T08:36:38.424Z,9.78
2023-04-26T08:40:44.151Z,9.50
2023-04-26T08:44:49.081Z,9.84
2023-04-26T08:49:06.087Z,10.43
2023-04-26T08:53:10.565Z,11.12
2023-04-26T08:57:16.097Z,11.47
2023-04-26T09:01:20.117Z,11.77
2023-04-26T09:05:27.268Z,11.91
2023-04-26T09:09:40.087Z,12.01
2023-04-26T09:13:43.387Z,12.29
2023-04-26T09:17:46.305Z,12.44
2023-04-26T09:21:50.094Z,12.42
2023-04-26T09:25:52.472Z,12.15
2023-04-26T09:29:59.967Z,11.92
2023-04-26T09:34:05.472Z,12.11
2023-04-26T09:38:19.515Z,12.19
2023-04-26T09:42:21.493Z,12.37
2023-04-26T09:46:26.906Z,12.16
2023-04-26T09:50:32.266Z,12.49
2023-04-26T09:54:47.456Z,13.09
2023-04-26T09:59:02.537Z,13.53
2023-04-26T10:03:06.202Z,13.68
2023-04-26T10:07:09.935Z,13.57
2023-04-26T10:11:14.138Z,13.87
2023-04-26T10:15:17.997Z,13.97
2023-04-26T10:19:24.529Z,13.86
2023-04-26T10:23:28.066Z,13.64
2023-04-26T10:27:43.509Z,13.64
2023-04-26T10:32:07.150Z,13.59
2023-04-26T10:36:15.952Z,13.57
2023-04-26T10:40:41.910Z,13.70
2023-04-26T10:44:45.840Z,13.80
2023-04-26T10:48:50.114Z,14.02
2023-04-26T10:53:04.816Z,14.18
2023-04-26T10:57:09.360Z,14.11
2023-04-26T11:01:20.151Z,14.16
2023-04-26T11:05:36.124Z,14.05
2023-04-26T11:09:41.609Z,13.88
2023-04-26T11:13:44.394Z,14.09
2023-04-26T11:17:47.432Z,14.21
2023-04-26T11:21:56.253Z,14.71
2023-04-26T11:26:06.090Z,15.10
2023-04-26T11:30:09.043Z,14.70
2023-04-26T11:34:12.081Z,14.48
2023-04-26T11:38:14.328Z,13.98
2023-04-26T11:42:16.848Z,14.33
2023-04-26T11:46:22.140Z,14.84
2023-04-26T11:50:26.965Z,15.26
2023-04-26T11:54:35.949Z,15.49
2023-04-26T11:58:38.107Z,15.42
2023-04-26T12:02:40.315Z,15.49
2023-04-26T12:06:48.278Z,16.46
2023-04-26T12:10:50.679Z,16.90
2023-04-26T12:14:54.077Z,17.11
2023-04-26T12:18:57.198Z,17.03
2023-04-26T12:22:59.783Z,17.04
2023-04-26T12:27:05.785Z,17.92
2023-04-26T12:31:09.130Z,18.67
2023-04-26T12:35:12.093Z,19.45
2023-04-26T12:39:15.921Z,19.16
2023-04-26T12:43:17.686Z,18.43
2023-04-26T12:47:22.652Z,18.94
2023-04-26T12:51:26.306Z,19.40
2023-04-26T12:55:31.920Z,19.84
2023-04-26T12:59:34.794Z,20.97
2023-04-26T13:03:36.881Z,21.76
2023-04-26T13:07:48.748Z,21.96
2023-04-26T13:11:50.390Z,22.88
2023-04-26T13:15:53.836Z,23.07
2023-04-26T13:19:56.895Z,23.91
2023-04-26T13:23:59.438Z,23.54
2023-04-26T13:28:01.984Z,22.60
2023-04-26T13:32:03.874Z,23.04
2023-04-26T13:36:05.920Z,23.40
2023-04-26T13:40:11.441Z,24.57
2023-04-26T13:44:14.430Z,24.96
2023-04-26T13:48:16.732Z,25.71
2023-04-26T13:52:18.967Z,25.68
2023-04-26T13:56:20.661Z,25.39
2023-04-26T14:00:23.109Z,25.14
2023-04-26T14:04:26.834Z,24.68
2023-04-26T14:08:29.347Z,23.72
2023-04-26T14:12:35.306Z,22.19
2023-04-26T14:16:37.196Z,20.49
2023-04-26T14:20:39.042Z,19.31
2023-04-26T14:24:40.996Z,18.70
2023-04-26T14:28:43.119Z,18.36
2023-04-26T14:32:45.870Z,18.11
2023-04-26T14:36:47.650Z,17.93
2023-04-26T14:40:49.590Z,17.82
2023-04-26T14:44:53.319Z,17.48
2023-04-26T14:48:56.126Z,16.94
2023-04-26T14:52:58.114Z,16.58
2023-04-26T14:57:00.529Z,15.92
2023-04-26T15:01:02.753Z,15.64
2023-04-26T15:05:09.121Z,15.36
2023-04-26T15:09:13.321Z,15.56
2023-04-26T15:13:15.264Z,15.55
2023-04-26T15:17:18.101Z,15.66
2023-04-26T15:21:19.918Z,15.42
2023-04-26T15:25:21.654Z,15.23
2023-04-26T15:29:23.446Z,15.40
2023-04-26T15:33:28.554Z,15.12
2023-04-26T15:37:30.683Z,15.12
2023-04-26T15:41:33.188Z,15.01
2023-04-26T15:45:35.978Z,14.89
2023-04-26T15:49:39.098Z,15.13
2023-04-26T15:53:43.858Z,15.07
2023-04-26T15:57:47.075Z,15.14
2023-04-26T16:01:48.881Z,15.09
2023-04-26T16:05:50.640Z,14.95
2023-04-26T16:09:52.717Z,15.31
2023-04-26T16:13:55.096Z,15.16
2023-04-26T16:18:00.228Z,15.19
2023-04-26T16:22:03.880Z,15.13
2023-04-26T16:26:07.120Z,14.98
2023-04-26T16:30:09.915Z,14.67
2023-04-26T16:34:12.135Z,14.30
2023-04-26T16:38:14.332Z,14.39
2023-04-26T16:42:17.106Z,14.23
2023-04-26T16:46:20.172Z,14.27
2023-04-26T16:50:22.169Z,13.97
2023-04-26T16:54:25.866Z,13.72
2023-04-26T16:58:27.607Z,13.56
2023-04-26T17:02:31.162Z,13.30
2023-04-26T17:06:33.374Z,13.17
2023-04-26T17:10:36.684Z,12.98
2023-04-26T17:14:38.318Z,12.91
2023-04-26T17:18:42.014Z,12.82
2023-04-26T17:22:46.099Z,12.85
2023-04-26T17:26:47.865Z,13.28
2023-04-26T17:30:49.681Z,13.50
2023-04-26T17:34:52.099Z,13.77
2023-04-26T17:38:53.918Z,13.99
2023-04-26T17:42:56.750Z,14.28
2023-04-26T17:46:59.324Z,14.53
2023-04-26T17:51:02.443Z,14.43
2023-04-26T17:55:08.138Z,14.18
2023-04-26T17:59:11.117Z,13.85
2023-04-26T18:03:13.837Z,13.55
2023-04-26T18:07:18.068Z,13.32
2023-04-26T18:11:24.190Z,13.06
2023-04-26T18:15:26.160Z,12.81
2023-04-26T18:19:29.462Z,12.55
2023-04-26T18:23:31.547Z,12.28
2023-04-26T18:27:33.565Z,12.01
2023-04-26T18:31:35.375Z,11.78
2023-04-26T18:35:38.198Z,11.53
2023-04-26T18:39:41.084Z,11.27
2023-04-26T18:43:43.934Z,11.08
2023-04-26T18:47:46.505Z,10.92
2023-04-26T18:51:49.112Z,10.79
2023-04-26T18:55:53.888Z,10.63
2023-04-26T18:59:57.516Z,10.51
2023-04-26T19:04:00.306Z,10.39
2023-04-26T19:08:03.257Z,10.27
2023-04-26T19:12:07.072Z,10.15
2023-04-26T19:16:10.260Z,10.02
2023-04-26T19:20:14.872Z,9.91
2023-04-26T19:24:19.342Z,9.81
2023-04-26T19:28:21.096Z,9.69
2023-04-26T19:32:23.160Z,9.56
2023-04-26T19:36:26.085Z,9.42
2023-04-26T19:40:29.092Z,9.26
2023-04-26T19:44:31.503Z,9.13
2023-04-26T19:48:35.083Z,9.00
2023-04-26T19:52:38.093Z,8.83
2023-04-26T19:56:41.087Z,8.71
2023-04-26T20:00:45.389Z,8.58
2023-04-26T20:04:48.114Z,8.46
2023-04-26T20:08:51.082Z,8.35
2023-04-26T20:12:53.402Z,8.24
2023-04-26T20:16:55.316Z,8.14
2023-04-26T20:20:59.878Z,8.05
2023-04-26T20:25:01.747Z,7.95
2023-04-26T20:29:03.678Z,7.84
2023-04-26T20:33:06.677Z,7.74
2023-04-26T20:37:08.519Z,7.69
2023-04-26T20:41:10.179Z,7.66
2023-04-26T20:45:12.502Z,7.63
2023-04-26T20:49:14.421Z,7.57
2023-04-26T20:53:16.772Z,7.52
2023-04-26T20:57:18.527Z,7.47
2023-04-26T21:01:20.294Z,7.41
2023-04-26T21:05:24.254Z,7.31
2023-04-26T21:09:26.162Z,7.27
2023-04-26T21:13:29.949Z,7.21
2023-04-26T21:17:31.672Z,7.15
2023-04-26T21:21:33.438Z,7.10
2023-04-26T21:25:35.360Z,7.03
2023-04-26T21:29:37.146Z,6.99
2023-04-26T21:33:39.020Z,6.98
2023-04-26T21:37:40.873Z,6.96
2023-04-26T21:41:42.965Z,6.90
2023-04-26T21:45:44.685Z,6.87
2023-04-26T21:49:46.364Z,6.82
2023-04-26T21:53:48.143Z,6.77
2023-04-26T21:57:50.025Z,6.72
2023-04-26T22:01:51.829Z,6.71
2023-04-26T22:05:53.501Z,6.67
2023-04-26T22:09:55.236Z,6.64
2023-04-26T22:13:56.939Z,6.61
2023-04-26T22:17:58.677Z,6.61
2023-04-26T22:22:00.616Z,6.58
2023-04-26T22:26:02.575Z,6.55
2023-04-26T22:30:20.499Z,6.53
2023-04-26T22:34:25.385Z,6.50
2023-04-26T22:38:27.189Z,6.48
2023-04-26T22:42:28.983Z,6.46
2023-04-26T22:46:30.876Z,6.45
2023-04-26T22:50:32.583Z,6.46
2023-04-26T22:54:34.390Z,6.48
2023-04-26T22:58:36.213Z,6.52
2023-04-26T23:02:38.099Z,6.61
2023-04-26T23:06:39.760Z,6.69
2023-04-26T23:10:41.631Z,6.83
2023-04-26T23:14:43.335Z,6.95
2023-04-26T23:18:46.640Z,7.05
2023-04-26T23:22:48.305Z,7.15
2023-04-26T23:26:49.966Z,7.25
2023-04-26T23:30:51.690Z,7.32
2023-04-26T23:34:53.495Z,7.41
2023-04-26T23:38:55.146Z,7.50
2023-04-26T23:42:56.988Z,7.57
2023-04-26T23:46:58.638Z,7.64
2023-04-26T23:51:00.467Z,7.68
2023-04-26T23:55:02.116Z,7.71
2023-04-26T23:59:03.812Z,7.69
